sensor_id;sensor_type;location;lat;lon;timestamp;temperature;humidity
9881;DHT22;4979;51.014;6.678;2022-07-29T00:02:17;20.00;99.90
9881;DHT22;4979;51.014;6.678;2022-07-29T00:04:43;20.10;99.90
9881;DHT22;4979;51.014;6.678;2022-07-29T00:07:08;20.10;99.90
9881;DHT22;4979;51.014;6.678;2022-07-29T00:09:34;20.10;99.90
9881;DHT22;4979;51.014;6.678;2022-07-29T00:12:01;20.10;99.90
9881;DHT22;4979;51.014;6.678;2022-07-29T00:14:27;20.10;99.90
9881;DHT22;4979;51.014;6.678;2022-07-29T00:16:53;20.00;99.90
9881;DHT22;4979;51.014;6.678;2022-07-29T00:19:18;20.00;99.90
9881;DHT22;4979;51.014;6.678;2022-07-29T00:21:44;20.00;99.90
9881;DHT22;4979;51.014;6.678;2022-07-29T00:24:09;20.00;99.90
9881;DHT22;4979;51.014;6.678;2022-07-29T00:26:35;20.00;99.90
9881;DHT22;4979;51.014;6.678;2022-07-29T00:29:02;20.00;99.90
9881;DHT22;4979;51.014;6.678;2022-07-29T00:31:28;20.00;99.90
9881;DHT22;4979;51.014;6.678;2022-07-29T00:33:54;20.00;99.90
9881;DHT22;4979;51.014;6.678;2022-07-29T00:36:20;20.00;99.90
9881;DHT22;4979;51.014;6.678;2022-07-29T00:38:49;20.00;99.90
9881;DHT22;4979;51.014;6.678;2022-07-29T00:41:15;20.00;99.90
9881;DHT22;4979;51.014;6.678;2022-07-29T00:43:42;20.00;99.90
9881;DHT22;4979;51.014;6.678;2022-07-29T00:46:07;20.00;99.90
9881;DHT22;4979;51.014;6.678;2022-07-29T00:48:33;19.90;99.90
9881;DHT22;4979;51.014;6.678;2022-07-29T00:51:00;19.90;99.90
9881;DHT22;4979;51.014;6.678;2022-07-29T00:53:26;19.90;99.90
9881;DHT22;4979;51.014;6.678;2022-07-29T00:55:54;19.90;99.90
9881;DHT22;4979;51.014;6.678;2022-07-29T00:58:20;19.90;99.90
9881;DHT22;4979;51.014;6.678;2022-07-29T01:00:46;19.90;99.90
9881;DHT22;4979;51.014;6.678;2022-07-29T01:03:11;19.90;99.90
9881;DHT22;4979;51.014;6.678;2022-07-29T01:05:37;20.00;99.90
9881;DHT22;4979;51.014;6.678;2022-07-29T01:08:05;19.90;99.90
9881;DHT22;4979;51.014;6.678;2022-07-29T01:10:31;19.90;99.90
9881;DHT22;4979;51.014;6.678;2022-07-29T01:12:58;19.90;99.90
9881;DHT22;4979;51.014;6.678;2022-07-29T01:15:24;19.80;99.90
9881;DHT22;4979;51.014;6.678;2022-07-29T01:18:01;19.70;99.90
9881;DHT22;4979;51.014;6.678;2022-07-29T01:26:06;19.80;99.90
9881;DHT22;4979;51.014;6.678;2022-07-29T01:31:52;19.80;99.90
9881;DHT22;4979;51.014;6.678;2022-07-29T01:34:45;19.80;99.90
9881;DHT22;4979;51.014;6.678;2022-07-29T01:40:22;19.70;99.90
9881;DHT22;4979;51.014;6.678;2022-07-29T01:42:52;19.70;99.90
9881;DHT22;4979;51.014;6.678;2022-07-29T01:48:05;19.80;99.90
9881;DHT22;4979;51.014;6.678;2022-07-29T01:53:31;19.70;99.90
9881;DHT22;4979;51.014;6.678;2022-07-29T01:56:00;19.80;99.90
9881;DHT22;4979;51.014;6.678;2022-07-29T01:58:28;19.70;99.90
9881;DHT22;4979;51.014;6.678;2022-07-29T02:00:57;19.80;99.90
9881;DHT22;4979;51.014;6.678;2022-07-29T02:03:24;19.70;99.90
9881;DHT22;4979;51.014;6.678;2022-07-29T02:05:53;19.60;99.90
9881;DHT22;4979;51.014;6.678;2022-07-29T02:08:21;19.60;99.90
9881;DHT22;4979;51.014;6.678;2022-07-29T02:10:48;19.50;99.90
9881;DHT22;4979;51.014;6.678;2022-07-29T02:13:16;19.40;99.90
9881;DHT22;4979;51.014;6.678;2022-07-29T02:15:44;19.30;99.90
9881;DHT22;4979;51.014;6.678;2022-07-29T02:18:18;19.20;99.90
9881;DHT22;4979;51.014;6.678;2022-07-29T02:20:48;19.10;99.90
9881;DHT22;4979;51.014;6.678;2022-07-29T02:23:18;19.10;99.90
9881;DHT22;4979;51.014;6.678;2022-07-29T02:25:46;19.20;99.90
9881;DHT22;4979;51.014;6.678;2022-07-29T02:28:13;19.20;99.90
9881;DHT22;4979;51.014;6.678;2022-07-29T02:30:41;19.30;99.90
9881;DHT22;4979;51.014;6.678;2022-07-29T02:33:08;19.30;99.90
9881;DHT22;4979;51.014;6.678;2022-07-29T02:35:35;19.20;99.90
9881;DHT22;4979;51.014;6.678;2022-07-29T02:38:02;19.20;99.90
9881;DHT22;4979;51.014;6.678;2022-07-29T02:40:48;19.10;99.90
9881;DHT22;4979;51.014;6.678;2022-07-29T02:43:17;19.10;99.90
9881;DHT22;4979;51.014;6.678;2022-07-29T02:45:44;19.10;99.90
9881;DHT22;4979;51.014;6.678;2022-07-29T02:48:13;19.10;99.90
9881;DHT22;4979;51.014;6.678;2022-07-29T02:50:53;19.10;99.90
9881;DHT22;4979;51.014;6.678;2022-07-29T02:53:23;19.10;99.90
9881;DHT22;4979;51.014;6.678;2022-07-29T03:00:47;19.00;99.90
9881;DHT22;4979;51.014;6.678;2022-07-29T03:03:15;18.90;99.90
9881;DHT22;4979;51.014;6.678;2022-07-29T03:05:41;18.90;99.90
9881;DHT22;4979;51.014;6.678;2022-07-29T03:08:09;18.90;99.90
9881;DHT22;4979;51.014;6.678;2022-07-29T03:10:37;18.70;99.90
9881;DHT22;4979;51.014;6.678;2022-07-29T03:13:05;18.70;99.90
9881;DHT22;4979;51.014;6.678;2022-07-29T03:15:31;18.70;99.90
9881;DHT22;4979;51.014;6.678;2022-07-29T03:17:58;18.70;99.90
9881;DHT22;4979;51.014;6.678;2022-07-29T03:20:25;18.60;99.90
9881;DHT22;4979;51.014;6.678;2022-07-29T03:22:51;18.60;99.90
9881;DHT22;4979;51.014;6.678;2022-07-29T03:25:18;18.50;99.90
9881;DHT22;4979;51.014;6.678;2022-07-29T03:27:45;18.50;99.90
9881;DHT22;4979;51.014;6.678;2022-07-29T03:30:11;18.50;99.90
9881;DHT22;4979;51.014;6.678;2022-07-29T03:32:38;18.40;99.90
9881;DHT22;4979;51.014;6.678;2022-07-29T03:35:05;18.40;99.90
9881;DHT22;4979;51.014;6.678;2022-07-29T03:37:31;18.30;99.90
9881;DHT22;4979;51.014;6.678;2022-07-29T03:39:57;18.10;99.90
9881;DHT22;4979;51.014;6.678;2022-07-29T03:42:26;18.10;99.90
9881;DHT22;4979;51.014;6.678;2022-07-29T03:44:54;18.00;99.90
9881;DHT22;4979;51.014;6.678;2022-07-29T03:47:24;18.10;99.90
9881;DHT22;4979;51.014;6.678;2022-07-29T03:49:52;18.10;99.90
9881;DHT22;4979;51.014;6.678;2022-07-29T03:52:19;18.10;99.90
9881;DHT22;4979;51.014;6.678;2022-07-29T03:54:45;18.00;99.90
9881;DHT22;4979;51.014;6.678;2022-07-29T03:57:11;17.90;99.90
9881;DHT22;4979;51.014;6.678;2022-07-29T03:59:37;17.90;99.90
9881;DHT22;4979;51.014;6.678;2022-07-29T04:02:04;17.80;99.90
9881;DHT22;4979;51.014;6.678;2022-07-29T04:04:33;17.70;99.90
9881;DHT22;4979;51.014;6.678;2022-07-29T04:06:59;17.60;99.90
9881;DHT22;4979;51.014;6.678;2022-07-29T04:09:25;17.60;99.90
9881;DHT22;4979;51.014;6.678;2022-07-29T04:11:50;17.50;99.90
9881;DHT22;4979;51.014;6.678;2022-07-29T04:14:16;17.30;99.90
9881;DHT22;4979;51.014;6.678;2022-07-29T04:16:42;17.20;99.90
9881;DHT22;4979;51.014;6.678;2022-07-29T04:19:07;17.10;99.90
9881;DHT22;4979;51.014;6.678;2022-07-29T04:21:40;17.10;99.90
9881;DHT22;4979;51.014;6.678;2022-07-29T04:24:06;17.20;99.90
9881;DHT22;4979;51.014;6.678;2022-07-29T04:26:32;17.10;99.90
9881;DHT22;4979;51.014;6.678;2022-07-29T04:28:58;17.10;99.90
9881;DHT22;4979;51.014;6.678;2022-07-29T04:31:24;17.10;99.90
9881;DHT22;4979;51.014;6.678;2022-07-29T04:33:49;17.10;99.90
9881;DHT22;4979;51.014;6.678;2022-07-29T04:36:15;17.10;99.90
9881;DHT22;4979;51.014;6.678;2022-07-29T04:38:40;17.00;99.90
9881;DHT22;4979;51.014;6.678;2022-07-29T04:41:06;17.20;99.90
9881;DHT22;4979;51.014;6.678;2022-07-29T04:43:34;17.20;99.90
9881;DHT22;4979;51.014;6.678;2022-07-29T04:46:00;17.20;99.90
9881;DHT22;4979;51.014;6.678;2022-07-29T04:48:26;17.30;99.90
9881;DHT22;4979;51.014;6.678;2022-07-29T04:50:52;17.30;99.90
9881;DHT22;4979;51.014;6.678;2022-07-29T04:53:18;17.20;99.90
9881;DHT22;4979;51.014;6.678;2022-07-29T04:55:44;17.20;99.90
9881;DHT22;4979;51.014;6.678;2022-07-29T04:58:10;17.30;99.90
9881;DHT22;4979;51.014;6.678;2022-07-29T05:00:36;17.30;99.90
9881;DHT22;4979;51.014;6.678;2022-07-29T05:03:02;17.40;99.90
9881;DHT22;4979;51.014;6.678;2022-07-29T05:05:28;17.50;99.90
9881;DHT22;4979;51.014;6.678;2022-07-29T05:07:53;17.60;99.90
9881;DHT22;4979;51.014;6.678;2022-07-29T05:10:19;17.70;99.90
9881;DHT22;4979;51.014;6.678;2022-07-29T05:12:45;17.80;99.90
9881;DHT22;4979;51.014;6.678;2022-07-29T05:15:10;17.90;99.90
9881;DHT22;4979;51.014;6.678;2022-07-29T05:17:36;17.80;99.90
9881;DHT22;4979;51.014;6.678;2022-07-29T05:20:03;18.00;99.90
9881;DHT22;4979;51.014;6.678;2022-07-29T05:22:29;18.10;99.90
9881;DHT22;4979;51.014;6.678;2022-07-29T05:24:54;17.90;99.90
9881;DHT22;4979;51.014;6.678;2022-07-29T05:27:20;18.00;99.90
9881;DHT22;4979;51.014;6.678;2022-07-29T05:29:45;18.10;99.90
9881;DHT22;4979;51.014;6.678;2022-07-29T05:32:12;18.10;99.90
9881;DHT22;4979;51.014;6.678;2022-07-29T05:34:37;18.30;99.90
9881;DHT22;4979;51.014;6.678;2022-07-29T05:37:03;18.40;99.90
9881;DHT22;4979;51.014;6.678;2022-07-29T05:39:29;18.40;99.90
9881;DHT22;4979;51.014;6.678;2022-07-29T05:41:55;18.50;99.90
9881;DHT22;4979;51.014;6.678;2022-07-29T05:44:20;18.70;99.90
9881;DHT22;4979;51.014;6.678;2022-07-29T05:46:46;18.80;99.90
9881;DHT22;4979;51.014;6.678;2022-07-29T05:49:11;18.80;99.90
9881;DHT22;4979;51.014;6.678;2022-07-29T05:51:37;18.70;99.90
9881;DHT22;4979;51.014;6.678;2022-07-29T05:54:02;18.70;99.90
9881;DHT22;4979;51.014;6.678;2022-07-29T05:56:28;18.70;99.90
9881;DHT22;4979;51.014;6.678;2022-07-29T05:58:54;18.80;99.90
9881;DHT22;4979;51.014;6.678;2022-07-29T06:01:20;18.80;99.90
9881;DHT22;4979;51.014;6.678;2022-07-29T06:03:46;18.60;99.90
9881;DHT22;4979;51.014;6.678;2022-07-29T06:06:11;18.40;99.90
9881;DHT22;4979;51.014;6.678;2022-07-29T06:08:38;18.30;99.90
9881;DHT22;4979;51.014;6.678;2022-07-29T06:11:04;18.30;99.90
9881;DHT22;4979;51.014;6.678;2022-07-29T06:13:31;18.30;99.90
9881;DHT22;4979;51.014;6.678;2022-07-29T06:15:56;18.40;99.90
9881;DHT22;4979;51.014;6.678;2022-07-29T06:18:22;18.30;99.90
9881;DHT22;4979;51.014;6.678;2022-07-29T06:20:52;18.40;99.90
9881;DHT22;4979;51.014;6.678;2022-07-29T06:23:18;18.50;99.90
9881;DHT22;4979;51.014;6.678;2022-07-29T06:25:44;18.50;99.90
9881;DHT22;4979;51.014;6.678;2022-07-29T06:28:10;18.40;99.90
9881;DHT22;4979;51.014;6.678;2022-07-29T06:30:36;18.40;99.90
9881;DHT22;4979;51.014;6.678;2022-07-29T06:33:02;18.30;99.90
9881;DHT22;4979;51.014;6.678;2022-07-29T06:35:28;18.20;99.90
9881;DHT22;4979;51.014;6.678;2022-07-29T06:37:53;18.20;99.90
9881;DHT22;4979;51.014;6.678;2022-07-29T06:40:19;18.20;99.90
9881;DHT22;4979;51.014;6.678;2022-07-29T06:43:20;18.20;99.90
9881;DHT22;4979;51.014;6.678;2022-07-29T06:45:46;18.00;99.90
9881;DHT22;4979;51.014;6.678;2022-07-29T06:48:11;18.00;99.90
9881;DHT22;4979;51.014;6.678;2022-07-29T06:50:37;18.10;99.90
9881;DHT22;4979;51.014;6.678;2022-07-29T06:53:03;18.10;99.90
9881;DHT22;4979;51.014;6.678;2022-07-29T06:55:29;18.20;99.90
9881;DHT22;4979;51.014;6.678;2022-07-29T06:57:54;18.20;99.90
9881;DHT22;4979;51.014;6.678;2022-07-29T07:00:20;18.00;99.90
9881;DHT22;4979;51.014;6.678;2022-07-29T07:02:45;18.00;99.90
9881;DHT22;4979;51.014;6.678;2022-07-29T07:05:11;18.10;99.90
9881;DHT22;4979;51.014;6.678;2022-07-29T07:07:37;18.00;99.90
9881;DHT22;4979;51.014;6.678;2022-07-29T07:10:02;18.10;99.90
9881;DHT22;4979;51.014;6.678;2022-07-29T07:12:28;18.00;99.90
9881;DHT22;4979;51.014;6.678;2022-07-29T07:14:54;18.00;99.90
9881;DHT22;4979;51.014;6.678;2022-07-29T07:17:19;18.00;99.90
9881;DHT22;4979;51.014;6.678;2022-07-29T07:19:45;18.10;99.90
9881;DHT22;4979;51.014;6.678;2022-07-29T07:22:10;18.10;99.90
9881;DHT22;4979;51.014;6.678;2022-07-29T07:24:36;18.10;99.90
9881;DHT22;4979;51.014;6.678;2022-07-29T07:27:02;18.30;99.90
9881;DHT22;4979;51.014;6.678;2022-07-29T07:29:28;18.40;99.90
9881;DHT22;4979;51.014;6.678;2022-07-29T07:31:53;18.50;99.90
9881;DHT22;4979;51.014;6.678;2022-07-29T07:34:19;18.50;99.90
9881;DHT22;4979;51.014;6.678;2022-07-29T07:36:45;18.50;99.90
9881;DHT22;4979;51.014;6.678;2022-07-29T07:39:12;18.70;99.90
9881;DHT22;4979;51.014;6.678;2022-07-29T07:41:37;18.60;99.90
9881;DHT22;4979;51.014;6.678;2022-07-29T07:44:03;18.70;99.90
9881;DHT22;4979;51.014;6.678;2022-07-29T07:46:28;18.70;99.90
9881;DHT22;4979;51.014;6.678;2022-07-29T07:48:54;18.70;99.90
9881;DHT22;4979;51.014;6.678;2022-07-29T07:51:20;18.80;99.90
9881;DHT22;4979;51.014;6.678;2022-07-29T07:53:45;18.80;99.90
9881;DHT22;4979;51.014;6.678;2022-07-29T07:56:15;18.80;99.90
9881;DHT22;4979;51.014;6.678;2022-07-29T07:58:41;18.90;99.90
9881;DHT22;4979;51.014;6.678;2022-07-29T08:01:07;19.00;99.90
9881;DHT22;4979;51.014;6.678;2022-07-29T08:03:33;19.00;99.90
9881;DHT22;4979;51.014;6.678;2022-07-29T08:05:58;18.90;99.90
9881;DHT22;4979;51.014;6.678;2022-07-29T08:08:24;19.00;99.90
9881;DHT22;4979;51.014;6.678;2022-07-29T08:10:50;19.10;99.90
9881;DHT22;4979;51.014;6.678;2022-07-29T08:13:25;19.00;99.90
9881;DHT22;4979;51.014;6.678;2022-07-29T08:15:53;19.20;99.90
9881;DHT22;4979;51.014;6.678;2022-07-29T08:18:38;19.20;99.90
9881;DHT22;4979;51.014;6.678;2022-07-29T08:21:04;19.20;99.90
9881;DHT22;4979;51.014;6.678;2022-07-29T08:23:29;19.30;99.90
9881;DHT22;4979;51.014;6.678;2022-07-29T08:26:08;19.20;99.90
9881;DHT22;4979;51.014;6.678;2022-07-29T08:28:39;19.20;99.90
9881;DHT22;4979;51.014;6.678;2022-07-29T08:31:05;19.20;99.90
9881;DHT22;4979;51.014;6.678;2022-07-29T08:33:32;19.30;99.90
9881;DHT22;4979;51.014;6.678;2022-07-29T08:35:57;19.30;99.90
9881;DHT22;4979;51.014;6.678;2022-07-29T08:38:23;19.50;99.90
9881;DHT22;4979;51.014;6.678;2022-07-29T08:40:48;19.60;99.90
9881;DHT22;4979;51.014;6.678;2022-07-29T08:43:14;19.70;99.90
9881;DHT22;4979;51.014;6.678;2022-07-29T08:45:45;19.80;99.90
9881;DHT22;4979;51.014;6.678;2022-07-29T08:48:12;19.90;99.90
9881;DHT22;4979;51.014;6.678;2022-07-29T08:50:39;20.00;99.90
9881;DHT22;4979;51.014;6.678;2022-07-29T08:53:07;20.00;99.90
9881;DHT22;4979;51.014;6.678;2022-07-29T08:55:36;20.00;99.90
9881;DHT22;4979;51.014;6.678;2022-07-29T08:58:02;20.00;99.90
9881;DHT22;4979;51.014;6.678;2022-07-29T09:00:29;20.00;99.90
9881;DHT22;4979;51.014;6.678;2022-07-29T09:02:57;19.90;99.90
9881;DHT22;4979;51.014;6.678;2022-07-29T09:05:24;19.80;99.90
9881;DHT22;4979;51.014;6.678;2022-07-29T09:07:50;19.70;99.90
9881;DHT22;4979;51.014;6.678;2022-07-29T09:10:16;19.60;99.90
9881;DHT22;4979;51.014;6.678;2022-07-29T09:12:42;19.60;99.90
9881;DHT22;4979;51.014;6.678;2022-07-29T09:15:08;19.60;99.90
9881;DHT22;4979;51.014;6.678;2022-07-29T09:17:44;19.70;99.90
9881;DHT22;4979;51.014;6.678;2022-07-29T09:20:12;19.70;99.90
9881;DHT22;4979;51.014;6.678;2022-07-29T09:22:37;20.00;99.90
9881;DHT22;4979;51.014;6.678;2022-07-29T09:25:03;20.60;99.90
9881;DHT22;4979;51.014;6.678;2022-07-29T09:27:29;20.90;99.90
9881;DHT22;4979;51.014;6.678;2022-07-29T09:29:56;20.90;99.90
9881;DHT22;4979;51.014;6.678;2022-07-29T09:32:22;20.80;99.90
9881;DHT22;4979;51.014;6.678;2022-07-29T09:34:48;20.60;99.90
9881;DHT22;4979;51.014;6.678;2022-07-29T09:37:28;20.70;99.90
9881;DHT22;4979;51.014;6.678;2022-07-29T09:39:53;20.70;99.90
9881;DHT22;4979;51.014;6.678;2022-07-29T09:42:29;20.70;99.90
9881;DHT22;4979;51.014;6.678;2022-07-29T09:44:57;20.70;99.90
9881;DHT22;4979;51.014;6.678;2022-07-29T09:47:45;20.80;99.90
9881;DHT22;4979;51.014;6.678;2022-07-29T09:50:12;20.90;99.90
9881;DHT22;4979;51.014;6.678;2022-07-29T09:52:52;21.00;99.90
9881;DHT22;4979;51.014;6.678;2022-07-29T09:55:19;21.20;99.90
9881;DHT22;4979;51.014;6.678;2022-07-29T09:57:45;21.20;99.90
9881;DHT22;4979;51.014;6.678;2022-07-29T10:00:16;21.10;99.90
9881;DHT22;4979;51.014;6.678;2022-07-29T10:02:44;21.10;99.90
9881;DHT22;4979;51.014;6.678;2022-07-29T10:05:25;21.20;99.90
9881;DHT22;4979;51.014;6.678;2022-07-29T10:07:56;21.20;99.90
9881;DHT22;4979;51.014;6.678;2022-07-29T10:10:31;21.20;99.90
9881;DHT22;4979;51.014;6.678;2022-07-29T10:13:10;21.30;99.90
9881;DHT22;4979;51.014;6.678;2022-07-29T10:15:39;21.40;99.90
9881;DHT22;4979;51.014;6.678;2022-07-29T10:18:11;21.40;99.90
9881;DHT22;4979;51.014;6.678;2022-07-29T10:20:38;21.30;99.90
9881;DHT22;4979;51.014;6.678;2022-07-29T10:23:04;21.40;99.90
9881;DHT22;4979;51.014;6.678;2022-07-29T10:25:30;21.70;99.90
9881;DHT22;4979;51.014;6.678;2022-07-29T10:27:56;21.90;99.90
9881;DHT22;4979;51.014;6.678;2022-07-29T10:30:23;22.10;99.90
9881;DHT22;4979;51.014;6.678;2022-07-29T10:41:26;23.00;99.90
9881;DHT22;4979;51.014;6.678;2022-07-29T10:44:08;23.30;99.90
9881;DHT22;4979;51.014;6.678;2022-07-29T10:46:35;23.70;99.90
9881;DHT22;4979;51.014;6.678;2022-07-29T10:49:12;23.80;99.90
9881;DHT22;4979;51.014;6.678;2022-07-29T11:05:07;24.60;99.90
9881;DHT22;4979;51.014;6.678;2022-07-29T11:07:34;24.50;99.90
9881;DHT22;4979;51.014;6.678;2022-07-29T11:15:04;24.50;99.90
9881;DHT22;4979;51.014;6.678;2022-07-29T11:23:29;24.60;99.90
9881;DHT22;4979;51.014;6.678;2022-07-29T11:26:16;24.90;99.90
9881;DHT22;4979;51.014;6.678;2022-07-29T11:28:59;24.80;99.90
9881;DHT22;4979;51.014;6.678;2022-07-29T11:31:46;24.70;99.90
9881;DHT22;4979;51.014;6.678;2022-07-29T11:39:47;25.20;99.90
9881;DHT22;4979;51.014;6.678;2022-07-29T11:44:59;25.40;99.90
9881;DHT22;4979;51.014;6.678;2022-07-29T11:47:27;25.50;99.90
9881;DHT22;4979;51.014;6.678;2022-07-29T11:49:55;25.40;99.90
9881;DHT22;4979;51.014;6.678;2022-07-29T11:52:21;25.60;99.90
9881;DHT22;4979;51.014;6.678;2022-07-29T11:54:48;25.20;99.90
9881;DHT22;4979;51.014;6.678;2022-07-29T11:57:20;25.20;99.90
9881;DHT22;4979;51.014;6.678;2022-07-29T11:59:47;25.20;99.90
9881;DHT22;4979;51.014;6.678;2022-07-29T12:02:14;25.20;99.90
9881;DHT22;4979;51.014;6.678;2022-07-29T12:04:55;25.20;99.90
9881;DHT22;4979;51.014;6.678;2022-07-29T12:07:31;25.20;99.90
9881;DHT22;4979;51.014;6.678;2022-07-29T12:09:58;25.10;99.90
9881;DHT22;4979;51.014;6.678;2022-07-29T12:12:24;25.30;99.90
9881;DHT22;4979;51.014;6.678;2022-07-29T12:14:50;25.60;99.90
9881;DHT22;4979;51.014;6.678;2022-07-29T12:17:29;25.50;99.90
9881;DHT22;4979;51.014;6.678;2022-07-29T12:19:58;26.00;99.90
9881;DHT22;4979;51.014;6.678;2022-07-29T12:22:30;26.10;99.90
9881;DHT22;4979;51.014;6.678;2022-07-29T12:25:04;26.20;99.90
9881;DHT22;4979;51.014;6.678;2022-07-29T12:27:31;26.10;99.90
9881;DHT22;4979;51.014;6.678;2022-07-29T12:30:06;25.90;99.90
9881;DHT22;4979;51.014;6.678;2022-07-29T12:32:41;25.80;99.90
9881;DHT22;4979;51.014;6.678;2022-07-29T12:35:10;25.90;99.90
9881;DHT22;4979;51.014;6.678;2022-07-29T12:37:38;25.90;99.90
9881;DHT22;4979;51.014;6.678;2022-07-29T12:40:05;25.90;99.90
9881;DHT22;4979;51.014;6.678;2022-07-29T12:42:31;25.80;99.90
9881;DHT22;4979;51.014;6.678;2022-07-29T12:44:57;25.90;99.90
9881;DHT22;4979;51.014;6.678;2022-07-29T12:47:26;26.20;99.90
9881;DHT22;4979;51.014;6.678;2022-07-29T12:50:08;26.20;99.90
9881;DHT22;4979;51.014;6.678;2022-07-29T12:52:34;26.20;99.90
9881;DHT22;4979;51.014;6.678;2022-07-29T12:55:00;26.30;99.90
9881;DHT22;4979;51.014;6.678;2022-07-29T12:57:27;26.50;99.90
9881;DHT22;4979;51.014;6.678;2022-07-29T13:00:07;26.50;99.90
9881;DHT22;4979;51.014;6.678;2022-07-29T13:02:34;26.60;99.90
9881;DHT22;4979;51.014;6.678;2022-07-29T13:05:00;26.70;99.90
9881;DHT22;4979;51.014;6.678;2022-07-29T13:07:31;26.50;99.90
9881;DHT22;4979;51.014;6.678;2022-07-29T13:10:16;26.20;99.90
9881;DHT22;4979;51.014;6.678;2022-07-29T13:13:06;26.00;99.90
9881;DHT22;4979;51.014;6.678;2022-07-29T13:15:33;26.20;99.90
9881;DHT22;4979;51.014;6.678;2022-07-29T13:17:59;26.30;99.90
9881;DHT22;4979;51.014;6.678;2022-07-29T13:20:27;26.40;99.90
9881;DHT22;4979;51.014;6.678;2022-07-29T13:22:56;26.40;99.90
9881;DHT22;4979;51.014;6.678;2022-07-29T13:25:26;26.50;99.90
9881;DHT22;4979;51.014;6.678;2022-07-29T13:27:52;26.60;99.90
9881;DHT22;4979;51.014;6.678;2022-07-29T13:30:20;26.80;99.90
9881;DHT22;4979;51.014;6.678;2022-07-29T13:32:46;26.70;99.90
9881;DHT22;4979;51.014;6.678;2022-07-29T13:35:12;26.60;99.90
9881;DHT22;4979;51.014;6.678;2022-07-29T13:37:39;26.80;99.90
9881;DHT22;4979;51.014;6.678;2022-07-29T13:40:06;26.80;99.90
9881;DHT22;4979;51.014;6.678;2022-07-29T13:42:33;26.60;99.90
9881;DHT22;4979;51.014;6.678;2022-07-29T13:44:59;26.70;99.90
9881;DHT22;4979;51.014;6.678;2022-07-29T13:47:25;26.50;99.90
9881;DHT22;4979;51.014;6.678;2022-07-29T13:49:51;26.40;99.90
9881;DHT22;4979;51.014;6.678;2022-07-29T13:52:17;26.40;99.90
9881;DHT22;4979;51.014;6.678;2022-07-29T13:54:43;26.40;99.90
9881;DHT22;4979;51.014;6.678;2022-07-29T13:57:09;26.40;99.90
9881;DHT22;4979;51.014;6.678;2022-07-29T13:59:41;26.40;99.90
9881;DHT22;4979;51.014;6.678;2022-07-29T14:02:08;26.50;99.90
9881;DHT22;4979;51.014;6.678;2022-07-29T14:04:34;26.50;99.90
9881;DHT22;4979;51.014;6.678;2022-07-29T14:07:00;26.60;99.90
9881;DHT22;4979;51.014;6.678;2022-07-29T14:09:26;26.60;99.90
9881;DHT22;4979;51.014;6.678;2022-07-29T14:11:51;26.70;99.90
9881;DHT22;4979;51.014;6.678;2022-07-29T14:14:18;26.60;99.90
9881;DHT22;4979;51.014;6.678;2022-07-29T14:16:44;26.90;99.90
9881;DHT22;4979;51.014;6.678;2022-07-29T14:19:09;26.70;99.90
9881;DHT22;4979;51.014;6.678;2022-07-29T14:21:38;26.80;99.90
9881;DHT22;4979;51.014;6.678;2022-07-29T14:24:04;26.90;99.90
9881;DHT22;4979;51.014;6.678;2022-07-29T14:26:30;27.00;99.90
9881;DHT22;4979;51.014;6.678;2022-07-29T14:28:56;26.70;99.90
9881;DHT22;4979;51.014;6.678;2022-07-29T14:31:21;26.60;99.90
9881;DHT22;4979;51.014;6.678;2022-07-29T14:33:47;26.80;99.90
9881;DHT22;4979;51.014;6.678;2022-07-29T14:36:13;26.80;99.90
9881;DHT22;4979;51.014;6.678;2022-07-29T14:38:38;26.70;99.90
9881;DHT22;4979;51.014;6.678;2022-07-29T14:41:06;26.90;99.90
9881;DHT22;4979;51.014;6.678;2022-07-29T14:43:31;26.90;99.90
9881;DHT22;4979;51.014;6.678;2022-07-29T14:45:57;26.90;99.90
9881;DHT22;4979;51.014;6.678;2022-07-29T14:48:23;26.90;99.90
9881;DHT22;4979;51.014;6.678;2022-07-29T14:50:48;27.00;99.90
9881;DHT22;4979;51.014;6.678;2022-07-29T14:53:14;26.90;99.90
9881;DHT22;4979;51.014;6.678;2022-07-29T14:55:40;26.60;99.90
9881;DHT22;4979;51.014;6.678;2022-07-29T14:58:05;26.60;99.90
9881;DHT22;4979;51.014;6.678;2022-07-29T15:00:31;26.70;99.90
9881;DHT22;4979;51.014;6.678;2022-07-29T15:02:59;26.80;99.90
9881;DHT22;4979;51.014;6.678;2022-07-29T15:05:26;26.80;99.90
9881;DHT22;4979;51.014;6.678;2022-07-29T15:07:52;27.00;99.90
9881;DHT22;4979;51.014;6.678;2022-07-29T15:10:17;26.90;99.90
9881;DHT22;4979;51.014;6.678;2022-07-29T15:12:43;26.90;99.90
9881;DHT22;4979;51.014;6.678;2022-07-29T15:15:09;26.90;99.90
9881;DHT22;4979;51.014;6.678;2022-07-29T15:17:35;26.90;99.90
9881;DHT22;4979;51.014;6.678;2022-07-29T15:20:00;26.90;99.90
9881;DHT22;4979;51.014;6.678;2022-07-29T15:22:26;26.60;99.90
9881;DHT22;4979;51.014;6.678;2022-07-29T15:24:52;26.70;99.70
9881;DHT22;4979;51.014;6.678;2022-07-29T15:27:18;26.80;99.80
9881;DHT22;4979;51.014;6.678;2022-07-29T15:29:44;26.90;99.90
9881;DHT22;4979;51.014;6.678;2022-07-29T15:32:10;26.90;99.90
9881;DHT22;4979;51.014;6.678;2022-07-29T15:34:36;26.90;99.90
9881;DHT22;4979;51.014;6.678;2022-07-29T15:37:03;27.00;99.90
9881;DHT22;4979;51.014;6.678;2022-07-29T15:39:29;26.80;99.90
9881;DHT22;4979;51.014;6.678;2022-07-29T15:41:55;26.70;99.90
9881;DHT22;4979;51.014;6.678;2022-07-29T15:44:20;26.80;99.90
9881;DHT22;4979;51.014;6.678;2022-07-29T15:46:47;26.80;99.90
9881;DHT22;4979;51.014;6.678;2022-07-29T15:49:46;26.70;99.90
9881;DHT22;4979;51.014;6.678;2022-07-29T15:52:12;26.80;99.90
9881;DHT22;4979;51.014;6.678;2022-07-29T15:54:39;26.70;99.90
9881;DHT22;4979;51.014;6.678;2022-07-29T15:57:07;26.50;99.90
9881;DHT22;4979;51.014;6.678;2022-07-29T15:59:33;26.70;99.90
9881;DHT22;4979;51.014;6.678;2022-07-29T16:01:59;26.50;99.90
9881;DHT22;4979;51.014;6.678;2022-07-29T16:04:25;26.70;99.90
9881;DHT22;4979;51.014;6.678;2022-07-29T16:06:51;26.70;99.90
9881;DHT22;4979;51.014;6.678;2022-07-29T16:09:17;26.70;99.90
9881;DHT22;4979;51.014;6.678;2022-07-29T16:11:43;26.60;99.90
9881;DHT22;4979;51.014;6.678;2022-07-29T16:14:10;26.50;99.90
9881;DHT22;4979;51.014;6.678;2022-07-29T16:16:37;26.50;99.90
9881;DHT22;4979;51.014;6.678;2022-07-29T16:19:03;26.30;99.90
9881;DHT22;4979;51.014;6.678;2022-07-29T16:21:29;26.40;99.90
9881;DHT22;4979;51.014;6.678;2022-07-29T16:23:56;26.20;99.90
9881;DHT22;4979;51.014;6.678;2022-07-29T16:26:22;26.10;99.90
9881;DHT22;4979;51.014;6.678;2022-07-29T16:28:48;26.10;99.90
9881;DHT22;4979;51.014;6.678;2022-07-29T16:31:14;26.30;99.90
9881;DHT22;4979;51.014;6.678;2022-07-29T16:33:39;26.40;99.90
9881;DHT22;4979;51.014;6.678;2022-07-29T16:36:05;26.50;99.90
9881;DHT22;4979;51.014;6.678;2022-07-29T16:38:31;26.60;99.90
9881;DHT22;4979;51.014;6.678;2022-07-29T16:40:56;26.70;99.90
9881;DHT22;4979;51.014;6.678;2022-07-29T16:43:22;26.50;99.90
9881;DHT22;4979;51.014;6.678;2022-07-29T16:45:47;26.50;99.90
9881;DHT22;4979;51.014;6.678;2022-07-29T16:48:13;26.40;99.90
9881;DHT22;4979;51.014;6.678;2022-07-29T16:50:39;26.50;99.90
9881;DHT22;4979;51.014;6.678;2022-07-29T16:53:05;26.50;99.90
9881;DHT22;4979;51.014;6.678;2022-07-29T16:55:31;26.50;99.90
9881;DHT22;4979;51.014;6.678;2022-07-29T16:57:56;26.50;99.90
9881;DHT22;4979;51.014;6.678;2022-07-29T17:00:22;26.50;99.90
9881;DHT22;4979;51.014;6.678;2022-07-29T17:02:48;26.40;99.90
9881;DHT22;4979;51.014;6.678;2022-07-29T17:05:14;26.60;99.90
9881;DHT22;4979;51.014;6.678;2022-07-29T17:07:40;26.60;99.90
9881;DHT22;4979;51.014;6.678;2022-07-29T17:10:07;26.50;99.90